Time;durP1;ratioP1;P1;durP2;ratioP2;P2;SDS_P1;SDS_P2;PMS_P1;PMS_P2;Temp;Humidity;BMP_temperature;BMP_pressure;BME280_temperature;BME280_humidity;BME280_pressure;Samples;Min_cycle;Max_cycle;Signal;HPM_P1;HPM_P2
2022/05/17 00:01:30;;;;;;;12.88;6.80;;;;;;;10.06;62.19;97333.54;1731858;82;25784;-74
2022/05/17 00:03:58;;;;;;;11.73;6.60;;;;;;;10.05;62.31;97340.48;1731790;82;27383;-75
2022/05/17 00:06:26;;;;;;;15.40;6.50;;;;;;;10.02;62.40;97338.23;1731690;82;25728;-74
2022/05/17 00:08:53;;;;;;;12.88;7.03;;;;;;;9.98;62.60;97338.33;1741584;81;25851;-75
2022/05/17 00:11:19;;;;;;;11.00;6.35;;;;;;;9.85;62.60;97335.64;1768482;81;26436;-76
2022/05/17 00:13:46;;;;;;;14.85;6.42;;;;;;;9.81;62.81;97331.69;1768601;81;25719;-75
2022/05/17 00:16:13;;;;;;;12.95;6.17;;;;;;;9.82;63.04;97325.27;1768443;81;27530;-76
2022/05/17 00:18:40;;;;;;;12.78;6.33;;;;;;;9.84;63.15;97326.72;1768516;81;25795;-75
2022/05/17 00:21:07;;;;;;;12.25;6.42;;;;;;;9.84;63.19;97324.03;1768416;81;25701;-75
2022/05/17 00:23:38;;;;;;;9.48;5.37;;;;;;;9.85;63.21;97321.64;1768490;81;25834;-74
2022/05/17 00:26:06;;;;;;;13.20;5.72;;;;;;;9.84;63.22;97321.33;1768426;81;25694;-76
2022/05/17 00:28:34;;;;;;;13.98;6.85;;;;;;;9.85;63.20;97319.47;1768357;81;27434;-75
2022/05/17 00:31:01;;;;;;;12.78;5.67;;;;;;;9.82;63.18;97311.78;1771162;80;25249;-74
2022/05/17 00:33:28;;;;;;;12.00;6.30;;;;;;;9.81;63.30;97316.86;1771707;80;26554;-75
2022/05/17 00:35:55;;;;;;;13.35;5.70;;;;;;;9.80;63.31;97315.20;1771601;80;26368;-77
2022/05/17 00:38:22;;;;;;;10.32;6.20;;;;;;;9.70;63.44;97310.23;1771812;80;25758;-74
2022/05/17 00:40:48;;;;;;;12.45;5.33;;;;;;;9.59;63.59;97304.13;1771747;80;27410;-74
2022/05/17 00:43:29;;;;;;;9.05;5.85;;;;;;;9.54;63.85;97307.44;1771663;80;25787;-75
2022/05/17 00:46:00;;;;;;;11.38;6.35;;;;;;;9.55;64.00;97305.05;1767714;80;25775;-76
2022/05/17 00:48:28;;;;;;;13.83;6.67;;;;;;;9.58;64.08;97305.99;1771722;80;25803;-76
2022/05/17 00:50:55;;;;;;;14.63;5.97;;;;;;;9.59;64.18;97302.27;1771742;80;26430;-76
2022/05/17 00:53:31;;;;;;;12.88;5.67;;;;;;;9.62;64.20;97303.20;1771719;80;27553;-74
2022/05/17 00:56:01;;;;;;;9.10;5.35;;;;;;;9.63;64.13;97298.13;1771790;80;25817;-75
2022/05/17 00:58:34;;;;;;;8.88;5.25;;;;;;;9.64;64.26;97294.40;1771729;80;25873;-74
2022/05/17 01:01:06;;;;;;;10.40;5.60;;;;;;;9.65;64.28;97300.10;1771695;80;25809;-74
2022/05/17 01:03:47;;;;;;;10.50;5.80;;;;;;;9.66;64.37;97288.80;1767790;80;25647;-74
2022/05/17 01:06:16;;;;;;;10.38;5.70;;;;;;;9.68;64.46;97288.88;1769469;80;27617;-76
2022/05/17 01:08:43;;;;;;;12.80;6.17;;;;;;;9.70;64.46;97291.38;1771712;80;25627;-75
2022/05/17 01:11:11;;;;;;;12.33;6.72;;;;;;;9.67;64.51;97288.57;1771918;80;25751;-78
2022/05/17 01:16:25;;;;;;;9.38;5.17;;;;;;;9.65;64.74;97278.55;1771741;80;25730;-74
2022/05/17 01:18:52;;;;;;;10.28;5.37;;;;;;;9.64;64.79;97274.19;1772020;80;28389;-75
2022/05/17 01:21:19;;;;;;;10.75;5.75;;;;;;;9.64;64.89;97276.88;1771717;80;25996;-75
2022/05/17 01:23:45;;;;;;;10.23;5.17;;;;;;;9.65;64.84;97269.11;1771808;80;25762;-75
2022/05/17 01:26:17;;;;;;;12.65;5.55;;;;;;;9.68;64.84;97271.87;1771948;80;25833;-74
2022/05/17 01:28:43;;;;;;;9.83;5.45;;;;;;;9.70;64.88;97272.50;1771903;80;25763;-74
2022/05/17 01:31:10;;;;;;;10.28;5.30;;;;;;;9.70;64.91;97268.47;1771573;80;28050;-74
2022/05/17 01:33:39;;;;;;;8.40;4.83;;;;;;;9.70;64.90;97267.11;1771840;80;26025;-74
2022/05/17 01:36:10;;;;;;;12.10;5.37;;;;;;;9.71;65.02;97265.56;1771841;80;25667;-76
2022/05/17 01:38:37;;;;;;;9.38;5.62;;;;;;;9.72;64.99;97269.92;1778737;79;25745;-78
2022/05/17 01:41:06;;;;;;;8.00;4.75;;;;;;;9.70;65.00;97267.11;1805342;79;25632;-74
2022/05/17 01:43:32;;;;;;;8.93;5.08;;;;;;;9.69;65.07;97270.84;1805409;79;28356;-77
2022/05/17 01:46:08;;;;;;;9.98;4.80;;;;;;;9.67;65.20;97272.40;1805303;79;25752;-76
2022/05/17 01:48:38;;;;;;;8.55;5.12;;;;;;;9.68;65.18;97268.67;1803096;79;25706;-74
2022/05/17 01:51:06;;;;;;;12.13;5.95;;;;;;;9.68;65.19;97268.67;1769607;80;25774;-75
2022/05/17 01:53:34;;;;;;;9.83;5.40;;;;;;;9.68;65.23;97265.97;1769648;81;26485;-73
2022/05/17 01:56:05;;;;;;;9.90;5.80;;;;;;;9.64;65.24;97267.45;1769654;81;27374;-74
2022/05/17 01:58:33;;;;;;;9.78;4.80;;;;;;;9.64;65.38;97262.06;1769852;81;25813;-75
2022/05/17 02:01:02;;;;;;;12.40;5.55;;;;;;;9.65;65.38;97261.02;1769642;81;25788;-74
2022/05/17 02:03:29;;;;;;;8.50;4.55;;;;;;;9.64;65.33;97254.48;1769612;81;25712;-74
2022/05/17 02:05:55;;;;;;;9.08;5.22;;;;;;;9.64;65.34;97256.67;1769525;81;25818;-74
2022/05/17 02:08:22;;;;;;;10.50;5.62;;;;;;;9.65;65.35;97252.94;1769583;81;27463;-74
2022/05/17 02:10:48;;;;;;;8.33;5.12;;;;;;;9.71;65.38;97262.87;1769554;81;26509;-74
2022/05/17 02:13:18;;;;;;;11.78;5.17;;;;;;;9.73;65.56;97255.41;1769695;81;25751;-74
2022/05/17 02:15:45;;;;;;;11.38;5.08;;;;;;;9.74;65.78;97254.37;1769621;81;25863;-74
2022/05/17 02:18:12;;;;;;;13.20;5.87;;;;;;;9.68;65.84;97255.19;1769659;81;25584;-75
2022/05/17 02:20:38;;;;;;;10.23;5.28;;;;;;;9.63;65.86;97259.56;1769537;81;27547;-77
2022/05/17 02:23:07;;;;;;;10.58;5.33;;;;;;;9.62;65.88;97254.70;1769456;81;25813;-75
2022/05/17 02:25:35;;;;;;;9.35;4.90;;;;;;;9.65;65.99;97250.24;1769589;81;25788;-75
2022/05/17 02:28:03;;;;;;;8.20;5.20;;;;;;;9.66;66.06;97245.13;1769492;81;25858;-74
2022/05/17 02:30:31;;;;;;;10.95;5.75;;;;;;;9.64;66.07;97245.89;1766694;80;25865;-74
2022/05/17 02:32:58;;;;;;;9.55;5.72;;;;;;;9.66;66.07;97251.88;1763658;81;27504;-76
2022/05/17 02:35:25;;;;;;;10.70;6.47;;;;;;;9.67;66.14;97254.88;1763849;81;25273;-77
2022/05/17 02:37:51;;;;;;;10.38;5.87;;;;;;;9.68;66.18;97241.72;1763726;81;25803;-74
2022/05/17 02:40:18;;;;;;;11.18;5.55;;;;;;;9.72;66.28;97240.78;1763909;81;26317;-74
2022/05/17 02:42:45;;;;;;;8.45;5.08;;;;;;;9.72;66.33;97245.66;1763909;81;25274;-74
2022/05/17 02:45:13;;;;;;;9.03;5.72;;;;;;;9.70;66.45;97245.55;1763954;81;27465;-74
2022/05/17 02:47:40;;;;;;;8.98;5.42;;;;;;;9.63;66.43;97242.87;1778130;79;26398;-76
2022/05/17 02:50:09;;;;;;;12.13;6.17;;;;;;;9.61;66.61;97231.99;1801981;79;25806;-74
2022/05/17 02:52:37;;;;;;;14.45;5.92;;;;;;;9.62;66.74;97239.05;1801893;79;25780;-75
2022/05/17 02:55:05;;;;;;;10.38;5.83;;;;;;;9.66;66.76;97245.69;1801769;79;25701;-77
2022/05/17 02:57:32;;;;;;;9.38;5.28;;;;;;;9.65;66.79;97232.72;1801689;79;27425;-74
2022/05/17 02:59:59;;;;;;;8.95;5.53;;;;;;;9.67;66.84;97234.66;1801895;79;25748;-75
2022/05/17 03:02:26;;;;;;;13.88;5.33;;;;;;;9.67;66.86;97226.58;1801930;79;25763;-77
2022/05/17 03:04:53;;;;;;;11.38;5.17;;;;;;;9.66;66.88;97234.91;1801927;79;25706;-76
2022/05/17 03:07:20;;;;;;;11.12;4.85;;;;;;;9.64;66.83;97231.06;1801974;79;26140;-74
2022/05/17 03:09:46;;;;;;;9.73;5.00;;;;;;;9.61;66.94;97243.61;1801716;79;28249;-75
2022/05/17 03:12:13;;;;;;;8.50;5.65;;;;;;;9.57;66.98;97246.91;1801834;79;25467;-75
2022/05/17 03:14:39;;;;;;;9.98;5.28;;;;;;;9.59;67.06;97248.89;1801903;79;25738;-78
2022/05/17 03:17:13;;;;;;;7.58;4.80;;;;;;;9.59;67.09;97248.37;1801903;79;25832;-77
2022/05/17 03:19:41;;;;;;;11.85;4.80;;;;;;;9.58;67.14;97247.23;1704444;84;25865;-74
2022/05/17 03:22:08;;;;;;;8.95;5.33;;;;;;;9.57;67.16;97246.91;1704571;84;28247;-75
2022/05/17 03:24:35;;;;;;;11.10;5.20;;;;;;;9.60;67.25;97246.50;1704664;84;26049;-76
2022/05/17 03:27:02;;;;;;;7.00;4.72;;;;;;;9.60;67.28;97250.03;1704580;84;25774;-77
2022/05/17 03:29:29;;;;;;;8.88;5.28;;;;;;;9.63;67.27;97250.14;1704650;84;25871;-74
2022/05/17 03:31:56;;;;;;;9.45;5.53;;;;;;;9.61;67.30;97246.81;1692597;84;25851;-74
2022/05/17 03:34:23;;;;;;;9.43;5.42;;;;;;;9.60;67.43;97243.81;1692091;84;28193;-74
2022/05/17 03:36:49;;;;;;;10.70;5.72;;;;;;;9.63;67.51;97245.58;1691923;84;25815;-76
2022/05/17 03:39:16;;;;;;;14.35;5.50;;;;;;;9.67;67.54;97244.62;1691752;84;25817;-76
2022/05/17 03:41:43;;;;;;;13.10;5.70;;;;;;;9.69;67.69;97239.33;1692071;84;25793;-76
2022/05/17 03:44:09;;;;;;;13.62;4.70;;;;;;;9.68;67.72;97240.37;1692231;84;25777;-78
2022/05/17 03:46:38;;;;;;;9.88;5.40;;;;;;;9.73;67.85;97258.62;1692058;84;27542;-77
2022/05/17 03:49:04;;;;;;;9.23;5.80;;;;;;;9.70;67.90;97245.03;1691919;84;26197;-75
2022/05/17 03:51:31;;;;;;;10.65;5.53;;;;;;;9.72;67.92;97244.31;1692112;84;25751;-74
2022/05/17 03:53:58;;;;;;;12.05;5.60;;;;;;;9.79;68.05;97250.20;1692084;84;25802;-80
2022/05/17 03:56:24;;;;;;;14.03;5.95;;;;;;;9.82;68.10;97249.78;1691748;84;25825;-75
2022/05/17 03:58:51;;;;;;;9.40;5.40;;;;;;;9.89;68.00;97254.14;1692156;84;27466;-73
2022/05/17 04:01:18;;;;;;;10.50;4.95;;;;;;;9.96;67.92;97249.55;1691979;84;25737;-76
2022/05/17 04:03:44;;;;;;;12.82;5.75;;;;;;;10.03;67.88;97256.27;1692105;84;25783;-75
2022/05/17 04:06:11;;;;;;;12.47;5.83;;;;;;;10.09;67.92;97254.91;1692031;84;27010;-75
2022/05/17 04:08:40;;;;;;;11.48;6.20;;;;;;;10.16;67.95;97252.18;1692033;84;25722;-77
2022/05/17 04:11:07;;;;;;;17.17;7.12;;;;;;;10.21;67.91;97262.38;1692068;84;27461;-75
2022/05/17 04:13:35;;;;;;;12.03;7.42;;;;;;;10.27;67.92;97258.30;1691919;84;25810;-79
2022/05/17 04:16:02;;;;;;;16.60;7.37;;;;;;;10.34;67.89;97263.69;1722074;79;25798;-74
2022/05/17 04:18:29;;;;;;;15.65;6.60;;;;;;;10.43;67.71;97269.14;1799054;79;25747;-74
2022/05/17 04:21:01;;;;;;;15.48;6.25;;;;;;;10.52;67.53;97274.59;1799097;79;25435;-76
2022/05/17 04:23:29;;;;;;;15.45;6.67;;;;;;;10.60;67.51;97276.25;1799220;79;27432;-79
2022/05/17 04:25:56;;;;;;;13.22;6.65;;;;;;;10.64;67.52;97270.70;1798832;79;25643;-75
2022/05/17 04:28:23;;;;;;;10.80;6.08;;;;;;;10.69;67.48;97273.60;1799018;79;25753;-74
2022/05/17 04:30:50;;;;;;;11.38;5.92;;;;;;;10.73;67.57;97274.84;1797925;79;26394;-75
2022/05/17 04:33:17;;;;;;;7.20;5.72;;;;;;;10.77;67.50;97273.34;1796126;79;25731;-75
2022/05/17 04:35:43;;;;;;;11.75;6.08;;;;;;;10.82;67.54;97269.48;1796481;79;27558;-75
2022/05/17 04:38:10;;;;;;;13.08;6.47;;;;;;;10.90;67.42;97271.92;1791196;79;26258;-75
2022/05/17 04:40:38;;;;;;;11.43;6.05;;;;;;;10.93;67.26;97272.02;1796452;79;25719;-76
2022/05/17 04:43:05;;;;;;;15.23;6.55;;;;;;;10.98;67.03;97270.34;1796619;79;25800;-74
2022/05/17 04:45:32;;;;;;;8.58;6.40;;;;;;;11.05;66.94;97268.41;1796699;79;25722;-76
2022/05/17 04:47:58;;;;;;;9.80;6.08;;;;;;;11.12;66.79;97270.53;1796296;79;27362;-74
2022/05/17 04:50:26;;;;;;;16.17;7.10;;;;;;;11.23;66.54;97277.66;1796702;79;25691;-74
2022/05/17 04:52:53;;;;;;;17.95;6.97;;;;;;;11.30;66.44;97275.73;1796505;79;25264;-74
2022/05/17 04:55:21;;;;;;;16.60;6.65;;;;;;;11.36;66.42;97273.48;1796558;79;25815;-76
2022/05/17 04:57:48;;;;;;;15.58;7.20;;;;;;;11.43;66.36;97276.45;1796152;79;25710;-75
2022/05/17 05:00:19;;;;;;;13.20;6.42;;;;;;;11.50;66.08;97281.80;1796563;79;27465;-75
2022/05/17 05:02:46;;;;;;;17.65;7.35;;;;;;;11.56;65.87;97274.17;1796723;79;25682;-76
2022/05/17 05:05:15;;;;;;;12.82;6.92;;;;;;;11.62;65.78;97281.39;1796538;79;25741;-76
2022/05/17 05:07:42;;;;;;;12.93;6.28;;;;;;;11.68;65.82;97284.58;1796439;79;25871;-75
2022/05/17 05:10:10;;;;;;;10.03;6.55;;;;;;;11.74;66.19;97284.20;1796606;79;26721;-76
2022/05/17 05:12:37;;;;;;;11.15;6.33;;;;;;;11.82;66.28;97280.74;1796143;79;28185;-75
2022/05/17 05:15:06;;;;;;;11.38;5.87;;;;;;;11.92;66.33;97276.70;1796408;79;25741;-78
2022/05/17 05:17:35;;;;;;;17.12;6.30;;;;;;;12.00;66.46;97279.10;1796248;79;25802;-75
2022/05/17 05:20:02;;;;;;;10.08;5.75;;;;;;;12.07;66.18;97278.01;1796444;79;25780;-77
2022/05/17 05:22:34;;;;;;;9.00;6.22;;;;;;;12.14;65.83;97276.05;1796493;79;25765;-78
2022/05/17 05:25:01;;;;;;;8.43;5.60;;;;;;;12.24;65.68;97278.22;1796370;79;27657;-77
2022/05/17 05:27:36;;;;;;;10.88;5.97;;;;;;;12.35;65.37;97272.06;1796544;79;25697;-75
2022/05/17 05:30:06;;;;;;;11.97;6.03;;;;;;;12.47;65.55;97275.67;1796575;79;25707;-74
2022/05/17 05:32:33;;;;;;;10.60;6.80;;;;;;;12.56;65.41;97271.59;1796257;79;25682;-78
2022/05/17 05:34:59;;;;;;;12.47;6.17;;;;;;;12.63;64.91;97269.65;1796492;79;25711;-75
2022/05/17 05:37:26;;;;;;;12.35;6.35;;;;;;;12.72;64.71;97267.45;1796495;79;27425;-75
2022/05/17 05:39:53;;;;;;;9.85;6.05;;;;;;;12.80;64.40;97263.61;1796414;79;25705;-75
2022/05/17 05:42:19;;;;;;;8.43;5.85;;;;;;;12.87;64.38;97266.52;1796572;79;25663;-78
2022/05/17 05:44:46;;;;;;;9.05;5.58;;;;;;;12.97;64.29;97275.45;1796541;79;25810;-75
2022/05/17 05:47:13;;;;;;;10.58;5.92;;;;;;;13.07;64.14;97275.72;1796360;79;25862;-75
2022/05/17 05:49:39;;;;;;;11.55;6.60;;;;;;;13.17;63.60;97278.72;1796792;79;27578;-75
2022/05/17 05:52:07;;;;;;;12.50;5.45;;;;;;;13.26;63.49;97273.83;1796614;79;25730;-76
2022/05/17 05:54:34;;;;;;;14.20;5.45;;;;;;;13.35;63.32;97269.72;1796680;79;25730;-74
2022/05/17 05:57:01;;;;;;;11.97;5.70;;;;;;;13.43;63.33;97265.83;1796816;79;26431;-75
2022/05/17 05:59:29;;;;;;;10.53;5.87;;;;;;;13.50;63.24;97263.33;1796645;79;25987;-78
2022/05/17 06:01:57;;;;;;;10.60;6.15;;;;;;;13.59;63.42;97261.09;1796676;79;27629;-75
2022/05/17 06:04:27;;;;;;;12.55;6.20;;;;;;;13.66;63.32;97263.98;1796440;79;25699;-75
2022/05/17 06:06:52;;;;;;;17.00;6.58;;;;;;;13.75;63.12;97268.55;1796194;79;25707;-75
2022/05/17 06:09:19;;;;;;;17.82;7.97;;;;;;;13.85;62.84;97270.15;1796332;79;26284;-77
2022/05/17 06:11:45;;;;;;;16.80;7.80;;;;;;;13.96;62.71;97262.54;1796797;79;25663;-76
2022/05/17 06:14:12;;;;;;;15.20;8.13;;;;;;;14.06;62.59;97260.58;1796683;79;27455;-74
2022/05/17 06:16:38;;;;;;;15.08;7.90;;;;;;;14.19;62.34;97256.80;1796636;79;25219;-75
2022/05/17 06:19:05;;;;;;;18.15;7.53;;;;;;;14.29;62.08;97261.09;1796857;79;25777;-75
2022/05/17 06:21:32;;;;;;;16.25;7.22;;;;;;;14.39;61.73;97259.95;1796840;79;26395;-75
2022/05/17 06:23:59;;;;;;;11.97;6.58;;;;;;;14.48;61.46;97255.85;1796291;79;25727;-74
2022/05/17 06:26:26;;;;;;;12.88;6.15;;;;;;;14.57;61.36;97254.41;1796805;79;27447;-79
2022/05/17 06:28:53;;;;;;;13.32;6.90;;;;;;;14.65;61.00;97251.30;1796486;79;25710;-75
2022/05/17 06:31:19;;;;;;;16.50;7.20;;;;;;;14.74;61.16;97249.02;1796586;79;25706;-74
2022/05/17 06:33:46;;;;;;;9.78;6.47;;;;;;;14.85;61.50;97251.44;1796563;79;26527;-77
2022/05/17 06:36:12;;;;;;;12.30;5.87;;;;;;;14.98;61.49;97253.83;1796617;79;25984;-75
2022/05/17 06:38:39;;;;;;;11.57;5.55;;;;;;;15.12;61.38;97252.47;1796617;79;27419;-78
2022/05/17 06:41:05;;;;;;;14.55;5.70;;;;;;;15.28;61.11;97251.69;1796737;79;25200;-77
2022/05/17 06:46:02;;;;;;;11.73;6.10;;;;;;;15.50;60.15;97247.18;1697550;84;25806;-75
2022/05/17 06:48:30;;;;;;;12.10;6.12;;;;;;;15.65;59.83;97246.64;1740793;82;26003;-75
2022/05/17 06:51:05;;;;;;;11.73;5.55;;;;;;;15.78;59.78;97238.69;1740567;82;28174;-78
2022/05/17 06:53:32;;;;;;;8.25;5.33;;;;;;;15.94;59.35;97237.83;1740740;82;25778;-75
2022/05/17 06:55:59;;;;;;;9.40;5.47;;;;;;;16.09;59.06;97229.89;1740694;82;25822;-77
2022/05/17 06:58:29;;;;;;;12.20;5.92;;;;;;;16.24;59.10;97235.27;1740714;82;26745;-75
2022/05/17 07:00:56;;;;;;;8.25;5.08;;;;;;;16.41;59.15;97234.70;1740694;82;25879;-75
2022/05/17 07:03:23;;;;;;;10.55;5.10;;;;;;;16.58;58.58;97238.17;1740620;82;27435;-76
2022/05/17 07:05:51;;;;;;;9.45;5.17;;;;;;;16.72;58.34;97241.37;1740551;82;25827;-76
2022/05/17 07:08:18;;;;;;;8.63;4.70;;;;;;;16.80;58.03;97233.56;1740604;82;25348;-75
2022/05/17 07:13:30;;;;;;;11.53;5.20;;;;;;;17.01;58.00;97233.81;1740700;82;25773;-76
2022/05/17 07:15:58;;;;;;;12.33;5.05;;;;;;;17.11;57.78;97231.19;1740599;82;27452;-75
2022/05/17 07:18:28;;;;;;;8.48;4.17;;;;;;;17.19;57.86;97232.08;1740665;82;25697;-77
2022/05/17 07:20:56;;;;;;;8.75;4.40;;;;;;;17.31;57.67;97229.19;1740369;81;25734;-78
2022/05/17 07:23:24;;;;;;;7.87;4.40;;;;;;;17.47;57.72;97229.63;1740392;82;25892;-76
2022/05/17 07:25:52;;;;;;;7.00;4.67;;;;;;;17.63;57.51;97229.50;1740809;82;25813;-75
2022/05/17 07:28:22;;;;;;;8.20;4.33;;;;;;;17.81;56.79;97225.56;1740653;82;27400;-80
2022/05/17 07:30:50;;;;;;;8.10;4.00;;;;;;;17.95;56.83;97224.58;1740518;82;26075;-76
2022/05/17 07:33:18;;;;;;;10.18;4.28;;;;;;;18.10;56.55;97220.59;1740264;82;25770;-75
2022/05/17 07:35:45;;;;;;;8.40;4.25;;;;;;;18.19;56.15;97221.73;1740578;82;25919;-75
2022/05/17 07:38:12;;;;;;;10.53;4.50;;;;;;;18.28;55.59;97222.05;1740817;82;25862;-76
2022/05/17 07:40:41;;;;;;;9.18;4.20;;;;;;;18.39;54.90;97226.47;1740728;82;27376;-76
2022/05/17 07:43:09;;;;;;;8.60;4.42;;;;;;;18.48;54.53;97225.41;1801614;77;25782;-76
2022/05/17 07:45:35;;;;;;;8.23;4.58;;;;;;;18.60;54.17;97220.04;1844585;77;25653;-80
2022/05/17 07:48:03;;;;;;;11.30;4.90;;;;;;;18.70;53.71;97227.48;1844504;77;25830;-76
2022/05/17 07:50:29;;;;;;;10.80;4.15;;;;;;;18.76;54.18;97218.20;1844718;77;25707;-76
2022/05/17 07:52:56;;;;;;;10.35;4.53;;;;;;;18.82;54.26;97221.24;1844598;77;28127;-75
2022/05/17 07:55:22;;;;;;;6.30;4.55;;;;;;;18.88;54.15;97221.52;1844335;77;25636;-77
2022/05/17 07:57:49;;;;;;;9.93;4.58;;;;;;;18.93;53.93;97221.55;1844567;77;25740;-76
2022/05/17 08:00:16;;;;;;;6.12;4.70;;;;;;;19.02;54.11;97211.72;1844570;77;25711;-76
2022/05/17 08:02:43;;;;;;;10.35;4.87;;;;;;;19.16;53.57;97216.67;1844583;77;25713;-74
2022/05/17 08:05:10;;;;;;;8.83;4.12;;;;;;;19.27;53.16;97216.42;1844560;77;27262;-76
2022/05/17 08:07:37;;;;;;;6.33;4.30;;;;;;;19.35;53.08;97206.84;1844365;77;25652;-76
2022/05/17 08:10:05;;;;;;;7.30;4.35;;;;;;;19.44;52.73;97206.60;1844360;77;25715;-76
2022/05/17 08:12:31;;;;;;;10.15;5.22;;;;;;;19.50;51.95;97203.33;1812217;77;25693;-75
2022/05/17 08:14:58;;;;;;;6.42;4.50;;;;;;;19.55;51.90;97205.55;1844325;77;25757;-76
2022/05/17 08:17:25;;;;;;;7.67;4.40;;;;;;;19.70;51.72;97195.93;1844631;77;28724;-77
2022/05/17 08:19:52;;;;;;;8.75;4.40;;;;;;;19.88;51.26;97196.48;1844422;77;25656;-78
2022/05/17 08:22:19;;;;;;;11.15;4.15;;;;;;;20.08;51.08;97193.70;1844670;77;25691;-76
2022/05/17 08:30:11;;;;;;;8.78;3.60;;;;;;;20.69;50.35;97186.13;1740554;82;27267;-76
2022/05/17 08:35:42;;;;;;;6.97;3.75;;;;;;;21.39;48.70;97186.84;1746187;82;25824;-76
2022/05/17 08:38:10;;;;;;;;;;;;;;;21.76;48.18;97177.20;1704975;83;25758;-76
2022/05/17 08:41:36;;;;;;;7.30;3.47;;;;;;;22.02;46.72;97176.44;1702585;83;25793;-76
2022/05/17 08:44:09;;;;;;;6.37;2.92;;;;;;;22.30;47.21;97181.10;1702595;83;27413;-80
2022/05/17 08:47:06;;;;;;;6.15;3.50;;;;;;;22.70;46.28;97177.61;1702687;83;25812;-78
2022/05/17 08:49:47;;;;;;;8.60;3.52;;;;;;;22.99;45.93;97178.34;1650192;86;25827;-76
2022/05/17 08:52:20;;;;;;;5.50;3.52;;;;;;;23.35;45.19;97183.59;1649805;86;25891;-79
2022/05/17 08:55:23;;;;;;;5.20;3.45;;;;;;;23.62;44.83;97172.46;1532802;93;25934;-75
2022/05/17 08:58:15;;;;;;;7.67;3.75;;;;;;;23.83;44.87;97165.48;1557797;92;33721;-76
2022/05/17 09:00:50;;;;;;;7.17;3.67;;;;;;;23.91;43.58;97168.91;1557502;91;25824;-76
2022/05/17 09:03:46;;;;;;;8.65;3.70;;;;;;;23.97;43.43;97166.34;1545943;92;25909;-79
2022/05/17 09:06:41;;;;;;;7.12;3.55;;;;;;;24.06;43.07;97164.51;1521969;94;25702;-77
2022/05/17 09:09:31;;;;;;;10.05;3.90;;;;;;;24.08;43.22;97166.15;1555232;92;25930;-77
2022/05/17 09:12:44;;;;;;;12.28;3.77;;;;;;;24.13;42.93;97161.93;1555152;92;27466;-76
2022/05/17 09:15:15;;;;;;;11.28;3.60;;;;;;;24.16;42.54;97169.57;1568076;91;26558;-78
2022/05/17 09:17:44;;;;;;;6.17;3.92;;;;;;;23.88;42.44;97168.72;1568333;91;25778;-76
2022/05/17 09:20:19;;;;;;;5.65;3.22;;;;;;;23.80;42.64;97164.70;1568045;91;25871;-77
2022/05/17 09:22:46;;;;;;;5.30;3.37;;;;;;;23.81;42.53;97164.96;1568067;91;25775;-77
2022/05/17 09:25:22;;;;;;;6.90;3.50;;;;;;;23.76;42.13;97162.87;1568187;91;28451;-80
2022/05/17 09:27:52;;;;;;;8.35;3.60;;;;;;;23.61;41.98;97167.52;1528430;93;25852;-76
2022/05/17 09:30:32;;;;;;;7.00;3.85;;;;;;;23.50;41.99;97169.33;1528565;93;25866;-76
2022/05/17 09:33:14;;;;;;;5.08;3.15;;;;;;;23.41;41.80;97176.64;1521308;93;26471;-78
2022/05/17 09:35:45;;;;;;;8.95;3.67;;;;;;;23.12;42.07;97179.54;1584327;89;25757;-77
2022/05/17 09:38:14;;;;;;;6.22;3.40;;;;;;;22.96;42.10;97182.49;1543000;92;27091;-76
2022/05/17 09:40:41;;;;;;;8.38;3.22;;;;;;;22.86;41.86;97169.44;1542936;92;26588;-75
2022/05/17 09:43:12;;;;;;;9.28;4.05;;;;;;;22.79;41.97;97175.87;1543037;92;26530;-75
2022/05/17 09:45:49;;;;;;;7.55;4.33;;;;;;;22.68;41.99;97172.95;1553925;91;25810;-79
2022/05/17 09:52:31;;;;;;;6.55;3.75;;;;;;;22.37;41.90;97173.31;1562043;91;25844;-75
2022/05/17 09:53:51;;;;;;;8.88;3.58;;;;;;;22.19;42.55;97176.83;1499245;95;25914;-75
2022/05/17 09:56:27;;;;;;;5.80;3.67;;;;;;;21.92;42.28;97157.55;1499597;95;25821;-75
2022/05/17 09:58:54;;;;;;;10.45;4.12;;;;;;;21.92;42.28;97157.55;1499388;95;26533;-75
2022/05/17 10:01:28;;;;;;;11.73;4.33;;;;;;;21.92;42.81;97178.16;1499655;95;25866;-77
2022/05/17 10:04:09;;;;;;;6.83;4.42;;;;;;;21.87;42.74;97175.44;1499541;95;27441;-75
2022/05/17 10:06:39;;;;;;;8.50;3.92;;;;;;;21.83;43.50;97172.20;1531318;92;25328;-77
2022/05/17 10:09:13;;;;;;;8.73;4.33;;;;;;;21.89;43.64;97173.78;1545200;92;26971;-75
2022/05/17 10:11:51;;;;;;;9.68;3.98;;;;;;;21.96;43.48;97173.46;1539157;93;25845;-76
2022/05/17 10:14:42;;;;;;;6.67;4.00;;;;;;;22.01;43.67;97174.25;1521922;94;25826;-77
2022/05/17 10:17:42;;;;;;;11.85;4.55;;;;;;;22.08;43.94;97172.55;1595268;89;27523;-75
2022/05/17 10:20:16;;;;;;;7.25;4.20;;;;;;;22.10;43.51;97168.92;1517559;94;25693;-77
2022/05/17 10:22:57;;;;;;;7.75;3.95;;;;;;;22.05;43.79;97175.31;1516169;94;25781;-74
2022/05/17 10:25:33;;;;;;;9.00;3.90;;;;;;;21.99;43.59;97168.77;1537315;93;25715;-78
2022/05/17 10:28:16;;;;;;;6.22;3.42;;;;;;;21.92;43.92;97180.91;1573332;89;25836;-75
2022/05/17 10:30:57;;;;;;;6.25;3.50;;;;;;;21.83;44.00;97181.27;1650817;86;27596;-74
2022/05/17 10:33:50;;;;;;;5.92;3.72;;;;;;;21.64;43.51;97174.83;1580572;90;25832;-75
2022/05/17 10:36:28;;;;;;;6.28;3.70;;;;;;;21.55;43.89;97177.38;1580913;90;26029;-77
2022/05/17 10:39:08;;;;;;;30.80;6.97;;;;;;;21.44;43.78;97181.87;1593738;89;26570;-77
2022/05/17 10:41:35;;;;;;;25.50;8.18;;;;;;;21.25;43.94;97190.53;1573765;90;25898;-75
2022/05/17 10:44:03;;;;;;;7.72;3.83;;;;;;;21.25;43.94;97190.53;1576615;90;27330;-76
2022/05/17 10:46:34;;;;;;;9.73;3.30;;;;;;;21.22;44.66;97193.28;1576595;90;25946;-74
2022/05/17 10:49:21;;;;;;;11.15;5.05;;;;;;;21.20;44.70;97201.80;1597620;88;25827;-74
2022/05/17 10:51:56;;;;;;;14.90;5.05;;;;;;;21.01;44.68;97195.28;1625511;88;25786;-74
2022/05/17 10:55:02;;;;;;;8.65;3.80;;;;;;;20.95;45.20;97199.17;1627014;88;25786;-77
2022/05/17 10:58:06;;;;;;;7.10;3.62;;;;;;;20.95;45.20;97199.17;1688208;83;28487;-76
2022/05/17 11:00:38;;;;;;;11.45;3.65;;;;;;;20.80;44.95;97203.36;1699269;84;25540;-77
2022/05/17 11:03:40;;;;;;;8.90;3.35;;;;;;;20.67;45.35;97188.87;1577294;90;25854;-76
2022/05/17 11:06:44;;;;;;;7.47;3.50;;;;;;;20.69;45.46;97203.95;1590397;90;25789;-76
2022/05/17 11:09:34;;;;;;;6.33;3.37;;;;;;;20.59;45.62;97207.30;1588950;90;25805;-76
2022/05/17 11:12:11;;;;;;;7.90;3.65;;;;;;;20.49;45.78;97208.98;1567835;91;27456;-74
2022/05/17 11:14:54;;;;;;;6.87;3.42;;;;;;;20.51;46.21;97203.22;1567816;91;25411;-75
2022/05/17 11:17:45;;;;;;;6.90;3.50;;;;;;;20.57;46.11;97205.38;1567988;91;25819;-76
2022/05/17 11:20:20;;;;;;;6.12;3.72;;;;;;;20.58;46.12;97201.53;1568077;91;25860;-74
2022/05/17 11:23:10;;;;;;;5.20;3.05;;;;;;;20.64;46.37;97202.63;1562824;91;25824;-75
2022/05/17 11:25:45;;;;;;;6.28;2.92;;;;;;;20.70;46.34;97201.48;1540698;93;27474;-77
2022/05/17 11:28:46;;;;;;;5.22;3.00;;;;;;;20.80;46.22;97193.75;1496674;95;26004;-74
2022/05/17 11:31:39;;;;;;;4.67;2.90;;;;;;;20.80;46.14;97200.61;1496987;95;25810;-74
2022/05/17 11:34:31;;;;;;;8.13;3.15;;;;;;;20.77;45.90;97179.25;1477397;95;25938;-75
2022/05/17 11:37:02;;;;;;;5.17;2.83;;;;;;;20.93;45.63;97197.26;1459697;97;25938;-75
2022/05/17 11:39:49;;;;;;;6.90;3.15;;;;;;;20.86;45.76;97203.61;1473696;95;27673;-73
2022/05/17 11:42:33;;;;;;;3.45;2.35;;;;;;;20.83;45.43;97205.55;1495403;95;25909;-76
2022/05/17 11:45:20;;;;;;;4.47;2.52;;;;;;;20.79;45.44;97198.42;1409407;101;25785;-75
2022/05/17 11:47:53;;;;;;;4.67;2.40;;;;;;;20.78;45.58;97205.55;1378255;104;26254;-76
2022/05/17 11:50:35;;;;;;;6.45;2.80;;;;;;;20.80;45.59;97204.17;1406241;100;25868;-76
2022/05/17 11:53:26;;;;;;;4.80;2.80;;;;;;;20.81;45.41;97200.89;1405736;102;28230;-75
2022/05/17 11:56:18;;;;;;;6.87;3.13;;;;;;;20.84;45.83;97204.45;1417761;101;25873;-74
2022/05/17 11:58:52;;;;;;;10.30;3.02;;;;;;;20.87;45.39;97197.58;1417851;100;25891;-77
2022/05/17 12:01:33;;;;;;;4.92;2.72;;;;;;;20.93;45.55;97201.38;1358409;105;26369;-75
2022/05/17 12:04:26;;;;;;;4.22;2.83;;;;;;;20.96;45.43;97196.70;1358192;105;25910;-78
2022/05/17 12:07:04;;;;;;;6.58;2.80;;;;;;;20.98;45.31;97189.56;1371089;104;27721;-76
2022/05/17 12:09:36;;;;;;;5.55;2.95;;;;;;;20.98;45.40;97194.50;1392084;102;25902;-75
2022/05/17 12:12:37;;;;;;;4.40;2.92;;;;;;;21.00;44.91;97189.55;1392402;102;25932;-75